Seneimaru — JG5357 — position and weather

sailwx.info

Track history (hours):
 
Tides and Currents Weather Stations Pressure Air Temp Water Temp Dewpoint Dewpoint Depression Visibility Wind Speed Wind Dir Waves Ship Positions

Seneimaru

Last reported at 2014-Sep-19 19:33 UTC. Time now 2014-Sep-19 19:55 UTC.
Position N 35°26' E 139°44'.

Length 72 m; draft 5.9 m.

Type: Cargo ship. MMSI: 431100477.

Date/timePositionNaut miles runAvg speedWind from/ knotsBaromVisibWave heightAir tempDewpointWater temp
2014-Sep-19 19:33N 35°26' E 139°44'2 2.1
2014-Sep-19 18:31N 35°23' E 139°44'0 0.0
2014-Sep-19 17:31N 35°23' E 139°44'0 0.0
2014-Sep-19 16:31N 35°23' E 139°44'6 6.0
2014-Sep-19 15:33N 35°18' E 139°45'1111.2
2014-Sep-19 14:32N 35°06' E 139°45'6 0.2
2014-Sep-18 05:15N 34°60' E 139°43'811.3
2014-Sep-18 04:33N 35°08' E 139°45'1111.0
2014-Sep-18 03:33N 35°19' E 139°44'1010.4
2014-Sep-18 02:33N 35°29' E 139°47'4 3.8
2014-Sep-18 01:33N 35°30' E 139°43'0 0.0
2014-Sep-18 00:33N 35°30' E 139°43'0 0.0
2014-Sep-17 23:33N 35°30' E 139°43'0 0.0
2014-Sep-17 22:33N 35°30' E 139°43'0 0.0
2014-Sep-17 21:33N 35°30' E 139°43'3 2.8
2014-Sep-17 20:33N 35°27' E 139°43'7 6.6
2014-Sep-17 19:33N 35°21' E 139°45'9 9.4
2014-Sep-17 18:33N 35°12' E 139°47'22 9.6
2014-Sep-17 16:16N 34°49' E 139°47'6 0.2
2014-Sep-16 09:33N 34°55' E 139°44'1010.1
2014-Sep-16 08:33N 35°05' E 139°45'1110.7
2014-Sep-16 07:33N 35°16' E 139°46'10 9.5
2014-Sep-16 06:33N 35°25' E 139°44'5 4.7
2014-Sep-16 05:33N 35°30' E 139°43'0 0.5
2014-Sep-16 04:33N 35°30' E 139°43'0 0.0
2014-Sep-16 03:33N 35°30' E 139°43'0 0.0
2014-Sep-16 02:33N 35°30' E 139°43'0 0.0
2014-Sep-16 01:33N 35°30' E 139°43'0 0.0
2014-Sep-16 00:33N 35°30' E 139°43'0 0.0
2014-Sep-15 23:33N 35°30' E 139°43'0 0.0
2014-Sep-15 22:33N 35°30' E 139°43'0 0.0
2014-Sep-15 21:33N 35°30' E 139°43'0 0.0
2014-Sep-15 20:33N 35°30' E 139°43'4 4.1
2014-Sep-15 19:33N 35°26' E 139°44'2 2.1
2014-Sep-15 18:31N 35°24' E 139°45'0 0.0
2014-Sep-15 17:28N 35°24' E 139°45'0 0.1
2014-Sep-15 16:31N 35°24' E 139°45'0 0.0
2014-Sep-15 15:31N 35°24' E 139°45'0 0.1
2014-Sep-15 14:31N 35°24' E 139°45'6 5.9
2014-Sep-15 13:33N 35°18' E 139°44'1111.3
2014-Sep-15 12:33N 35°07' E 139°46'12 0.4
2014-Sep-14 04:19N 34°55' E 139°45'911.2
2014-Sep-14 03:33N 35°04' E 139°44'1212.0
2014-Sep-14 02:33N 35°16' E 139°46'1010.3
2014-Sep-14 01:33N 35°26' E 139°45'4 1.1
2014-Sep-13 21:33N 35°30' E 139°43'0 0.0
2014-Sep-13 20:33N 35°30' E 139°43'1 1.3
2014-Sep-13 19:33N 35°29' E 139°42'6 5.6
2014-Sep-13 18:33N 35°24' E 139°44'0 0.0
2014-Sep-13 17:31N 35°24' E 139°44'0 0.0
2014-Sep-13 16:28N 35°24' E 139°44'0 0.0
2014-Sep-13 15:31N 35°24' E 139°44'3 3.0
2014-Sep-13 14:33N 35°21' E 139°43'1010.3
2014-Sep-13 13:33N 35°11' E 139°47'1312.7
2014-Sep-13 12:33N 34°59' E 139°43'5 0.2
2014-Sep-12 05:05N 34°53' E 139°46'6 9.4
2014-Sep-12 04:29N 34°59' E 139°43'1111.9
2014-Sep-12 03:32N 35°10' E 139°46'1111.2
2014-Sep-12 02:33N 35°20' E 139°42'1110.6
2014-Sep-12 01:33N 35°30' E 139°47'3 3.5
2014-Sep-12 00:33N 35°30' E 139°43'0 0.0
2014-Sep-11 23:33N 35°30' E 139°43'0 0.0
2014-Sep-11 22:33N 35°30' E 139°43'0 0.0
2014-Sep-11 21:33N 35°30' E 139°43'0 0.0
2014-Sep-11 20:33N 35°30' E 139°43'1 1.4
2014-Sep-11 19:33N 35°29' E 139°42'6 5.8
2014-Sep-11 18:33N 35°23' E 139°44'0 0.0
2014-Sep-11 17:27N 35°23' E 139°44'5 4.9
2014-Sep-11 16:24N 35°18' E 139°44'910.8
2014-Sep-11 15:33N 35°09' E 139°46'19 0.6
2014-Sep-10 06:29N 34°50' E 139°48'8 8.8
2014-Sep-10 05:33N 34°58' E 139°44'9 9.1
2014-Sep-10 04:33N 35°07' E 139°45'1010.4
2014-Sep-10 03:33N 35°17' E 139°45'5 4.8
2014-Sep-10 02:31N 35°22' E 139°44'0 0.1
2014-Sep-10 01:31N 35°22' E 139°43'0 0.1
2014-Sep-10 00:31N 35°22' E 139°44'0 0.0
2014-Sep-09 23:31N 35°22' E 139°44'0 0.0
2014-Sep-09 22:31N 35°22' E 139°44'0 0.0
2014-Sep-09 21:31N 35°22' E 139°44'0 0.0
2014-Sep-09 20:31N 35°22' E 139°44'  
Track history (hours):
 
Tides and Currents Weather Stations Pressure Air Temp Water Temp Dewpoint Dewpoint Depression Visibility Wind Speed Wind Dir Waves Ship Positions

Seneimaru

Last reported at 2014-Sep-19 19:33 UTC. Time now 2014-Sep-19 19:55 UTC.
Position N 35°26' E 139°44'.

Length 72 m; draft 5.9 m.

Type: Cargo ship. MMSI: 431100477.

Date/timePositionNaut miles runAvg speedWind from/ knotsBaromVisibWave heightAir tempDewpointWater temp
2014-Sep-19 19:33N 35°26' E 139°44'2 2.1
2014-Sep-19 18:31N 35°23' E 139°44'0 0.0
2014-Sep-19 17:31N 35°23' E 139°44'0 0.0
2014-Sep-19 16:31N 35°23' E 139°44'6 6.0
2014-Sep-19 15:33N 35°18' E 139°45'1111.2
2014-Sep-19 14:32N 35°06' E 139°45'6 0.2
2014-Sep-18 05:15N 34°60' E 139°43'811.3
2014-Sep-18 04:33N 35°08' E 139°45'1111.0
2014-Sep-18 03:33N 35°19' E 139°44'1010.4
2014-Sep-18 02:33N 35°29' E 139°47'4 3.8
2014-Sep-18 01:33N 35°30' E 139°43'0 0.0
2014-Sep-18 00:33N 35°30' E 139°43'0 0.0
2014-Sep-17 23:33N 35°30' E 139°43'0 0.0
2014-Sep-17 22:33N 35°30' E 139°43'0 0.0
2014-Sep-17 21:33N 35°30' E 139°43'3 2.8
2014-Sep-17 20:33N 35°27' E 139°43'7 6.6
2014-Sep-17 19:33N 35°21' E 139°45'9 9.4
2014-Sep-17 18:33N 35°12' E 139°47'22 9.6
2014-Sep-17 16:16N 34°49' E 139°47'6 0.2
2014-Sep-16 09:33N 34°55' E 139°44'1010.1
2014-Sep-16 08:33N 35°05' E 139°45'1110.7
2014-Sep-16 07:33N 35°16' E 139°46'10 9.5
2014-Sep-16 06:33N 35°25' E 139°44'5 4.7
2014-Sep-16 05:33N 35°30' E 139°43'0 0.5
2014-Sep-16 04:33N 35°30' E 139°43'0 0.0
2014-Sep-16 03:33N 35°30' E 139°43'0 0.0
2014-Sep-16 02:33N 35°30' E 139°43'0 0.0
2014-Sep-16 01:33N 35°30' E 139°43'0 0.0
2014-Sep-16 00:33N 35°30' E 139°43'0 0.0
2014-Sep-15 23:33N 35°30' E 139°43'0 0.0
2014-Sep-15 22:33N 35°30' E 139°43'0 0.0
2014-Sep-15 21:33N 35°30' E 139°43'0 0.0
2014-Sep-15 20:33N 35°30' E 139°43'4 4.1
2014-Sep-15 19:33N 35°26' E 139°44'2 2.1
2014-Sep-15 18:31N 35°24' E 139°45'0 0.0
2014-Sep-15 17:28N 35°24' E 139°45'0 0.1
2014-Sep-15 16:31N 35°24' E 139°45'0 0.0
2014-Sep-15 15:31N 35°24' E 139°45'0 0.1
2014-Sep-15 14:31N 35°24' E 139°45'6 5.9
2014-Sep-15 13:33N 35°18' E 139°44'1111.3
2014-Sep-15 12:33N 35°07' E 139°46'12 0.4
2014-Sep-14 04:19N 34°55' E 139°45'911.2
2014-Sep-14 03:33N 35°04' E 139°44'1212.0
2014-Sep-14 02:33N 35°16' E 139°46'1010.3
2014-Sep-14 01:33N 35°26' E 139°45'4 1.1
2014-Sep-13 21:33N 35°30' E 139°43'0 0.0
2014-Sep-13 20:33N 35°30' E 139°43'1 1.3
2014-Sep-13 19:33N 35°29' E 139°42'6 5.6
2014-Sep-13 18:33N 35°24' E 139°44'0 0.0
2014-Sep-13 17:31N 35°24' E 139°44'0 0.0
2014-Sep-13 16:28N 35°24' E 139°44'0 0.0
2014-Sep-13 15:31N 35°24' E 139°44'3 3.0
2014-Sep-13 14:33N 35°21' E 139°43'1010.3
2014-Sep-13 13:33N 35°11' E 139°47'1312.7
2014-Sep-13 12:33N 34°59' E 139°43'5 0.2
2014-Sep-12 05:05N 34°53' E 139°46'6 9.4
2014-Sep-12 04:29N 34°59' E 139°43'1111.9
2014-Sep-12 03:32N 35°10' E 139°46'1111.2
2014-Sep-12 02:33N 35°20' E 139°42'1110.6
2014-Sep-12 01:33N 35°30' E 139°47'3 3.5
2014-Sep-12 00:33N 35°30' E 139°43'0 0.0
2014-Sep-11 23:33N 35°30' E 139°43'0 0.0
2014-Sep-11 22:33N 35°30' E 139°43'0 0.0
2014-Sep-11 21:33N 35°30' E 139°43'0 0.0
2014-Sep-11 20:33N 35°30' E 139°43'1 1.4
2014-Sep-11 19:33N 35°29' E 139°42'6 5.8
2014-Sep-11 18:33N 35°23' E 139°44'0 0.0
2014-Sep-11 17:27N 35°23' E 139°44'5 4.9
2014-Sep-11 16:24N 35°18' E 139°44'910.8
2014-Sep-11 15:33N 35°09' E 139°46'19 0.6
2014-Sep-10 06:29N 34°50' E 139°48'8 8.8
2014-Sep-10 05:33N 34°58' E 139°44'9 9.1
2014-Sep-10 04:33N 35°07' E 139°45'1010.4
2014-Sep-10 03:33N 35°17' E 139°45'5 4.8
2014-Sep-10 02:31N 35°22' E 139°44'0 0.1
2014-Sep-10 01:31N 35°22' E 139°43'0 0.1
2014-Sep-10 00:31N 35°22' E 139°44'0 0.0
2014-Sep-09 23:31N 35°22' E 139°44'0 0.0
2014-Sep-09 22:31N 35°22' E 139°44'0 0.0
2014-Sep-09 21:31N 35°22' E 139°44'0 0.0
2014-Sep-09 20:31N 35°22' E 139°44'  

Dump ship's entire track history